sensor_id;sensor_type;location;lat;lon;timestamp;temperature;humidity
81524;DHT22;70954;49.500;10.416;2024-03-25T00:01:28;6.20;68.80
81524;DHT22;70954;49.500;10.416;2024-03-25T00:03:53;6.20;68.90
81524;DHT22;70954;49.500;10.416;2024-03-25T00:06:19;6.20;68.70
81524;DHT22;70954;49.500;10.416;2024-03-25T00:08:44;6.20;68.70
81524;DHT22;70954;49.500;10.416;2024-03-25T00:11:09;6.20;68.90
81524;DHT22;70954;49.500;10.416;2024-03-25T00:13:35;6.20;68.70
81524;DHT22;70954;49.500;10.416;2024-03-25T00:16:00;6.20;68.70
81524;DHT22;70954;49.500;10.416;2024-03-25T00:18:26;6.20;68.80
81524;DHT22;70954;49.500;10.416;2024-03-25T00:20:51;6.20;68.90
81524;DHT22;70954;49.500;10.416;2024-03-25T00:23:17;6.20;69.20
81524;DHT22;70954;49.500;10.416;2024-03-25T00:25:42;6.20;69.00
81524;DHT22;70954;49.500;10.416;2024-03-25T00:28:08;6.20;69.00
81524;DHT22;70954;49.500;10.416;2024-03-25T00:30:33;6.20;69.10
81524;DHT22;70954;49.500;10.416;2024-03-25T00:32:58;6.20;69.40
81524;DHT22;70954;49.500;10.416;2024-03-25T00:35:24;6.30;69.20
81524;DHT22;70954;49.500;10.416;2024-03-25T00:37:49;6.30;69.10
81524;DHT22;70954;49.500;10.416;2024-03-25T00:40:15;6.30;69.20
81524;DHT22;70954;49.500;10.416;2024-03-25T00:42:40;6.30;69.00
81524;DHT22;70954;49.500;10.416;2024-03-25T00:45:06;6.30;69.00
81524;DHT22;70954;49.500;10.416;2024-03-25T00:47:32;6.40;69.00
81524;DHT22;70954;49.500;10.416;2024-03-25T00:49:57;6.40;68.90
81524;DHT22;70954;49.500;10.416;2024-03-25T00:52:23;6.40;68.70
81524;DHT22;70954;49.500;10.416;2024-03-25T00:54:48;6.40;68.80
81524;DHT22;70954;49.500;10.416;2024-03-25T00:57:14;6.40;68.70
81524;DHT22;70954;49.500;10.416;2024-03-25T00:59:39;6.40;68.60
81524;DHT22;70954;49.500;10.416;2024-03-25T01:02:05;6.50;68.60
81524;DHT22;70954;49.500;10.416;2024-03-25T01:04:30;6.50;68.60
81524;DHT22;70954;49.500;10.416;2024-03-25T01:06:56;6.50;68.50
81524;DHT22;70954;49.500;10.416;2024-03-25T01:09:21;6.50;68.60
81524;DHT22;70954;49.500;10.416;2024-03-25T01:11:46;6.50;68.60
81524;DHT22;70954;49.500;10.416;2024-03-25T01:14:12;6.50;68.40
81524;DHT22;70954;49.500;10.416;2024-03-25T01:16:37;6.50;68.50
81524;DHT22;70954;49.500;10.416;2024-03-25T01:19:03;6.50;68.40
81524;DHT22;70954;49.500;10.416;2024-03-25T01:21:28;6.50;68.40
81524;DHT22;70954;49.500;10.416;2024-03-25T01:23:54;6.50;68.30
81524;DHT22;70954;49.500;10.416;2024-03-25T01:26:19;6.50;68.30
81524;DHT22;70954;49.500;10.416;2024-03-25T01:28:44;6.50;68.30
81524;DHT22;70954;49.500;10.416;2024-03-25T01:31:10;6.50;68.20
81524;DHT22;70954;49.500;10.416;2024-03-25T01:33:35;6.50;68.20
81524;DHT22;70954;49.500;10.416;2024-03-25T01:36:01;6.50;68.20
81524;DHT22;70954;49.500;10.416;2024-03-25T01:38:27;6.50;68.10
81524;DHT22;70954;49.500;10.416;2024-03-25T01:40:53;6.50;68.10
81524;DHT22;70954;49.500;10.416;2024-03-25T01:43:18;6.60;68.00
81524;DHT22;70954;49.500;10.416;2024-03-25T01:45:44;6.60;68.10
81524;DHT22;70954;49.500;10.416;2024-03-25T01:48:10;6.60;68.20
81524;DHT22;70954;49.500;10.416;2024-03-25T01:50:43;6.60;68.20
81524;DHT22;70954;49.500;10.416;2024-03-25T01:53:11;6.60;68.10
81524;DHT22;70954;49.500;10.416;2024-03-25T01:55:37;6.60;68.00
81524;DHT22;70954;49.500;10.416;2024-03-25T01:58:04;6.60;68.10
81524;DHT22;70954;49.500;10.416;2024-03-25T02:00:30;6.60;68.00
81524;DHT22;70954;49.500;10.416;2024-03-25T02:02:56;6.60;68.00
81524;DHT22;70954;49.500;10.416;2024-03-25T02:05:22;6.60;68.00
81524;DHT22;70954;49.500;10.416;2024-03-25T02:07:48;6.60;68.00
81524;DHT22;70954;49.500;10.416;2024-03-25T02:10:14;6.60;68.00
81524;DHT22;70954;49.500;10.416;2024-03-25T02:12:41;6.60;67.90
81524;DHT22;70954;49.500;10.416;2024-03-25T02:15:08;6.60;68.00
81524;DHT22;70954;49.500;10.416;2024-03-25T02:17:33;6.60;68.00
81524;DHT22;70954;49.500;10.416;2024-03-25T02:19:59;6.60;68.00
81524;DHT22;70954;49.500;10.416;2024-03-25T02:22:25;6.60;67.90
81524;DHT22;70954;49.500;10.416;2024-03-25T02:24:52;6.60;68.10
81524;DHT22;70954;49.500;10.416;2024-03-25T02:27:18;6.60;68.00
81524;DHT22;70954;49.500;10.416;2024-03-25T02:29:44;6.60;68.00
81524;DHT22;70954;49.500;10.416;2024-03-25T02:32:10;6.60;67.90
81524;DHT22;70954;49.500;10.416;2024-03-25T02:34:39;6.60;68.00
81524;DHT22;70954;49.500;10.416;2024-03-25T02:37:04;6.60;67.80
81524;DHT22;70954;49.500;10.416;2024-03-25T02:39:31;6.60;67.70
81524;DHT22;70954;49.500;10.416;2024-03-25T02:41:57;6.60;67.90
81524;DHT22;70954;49.500;10.416;2024-03-25T02:44:23;6.60;67.70
81524;DHT22;70954;49.500;10.416;2024-03-25T02:46:49;6.50;67.60
81524;DHT22;70954;49.500;10.416;2024-03-25T02:49:14;6.50;67.50
81524;DHT22;70954;49.500;10.416;2024-03-25T02:51:40;6.50;67.60
81524;DHT22;70954;49.500;10.416;2024-03-25T02:54:05;6.40;67.50
81524;DHT22;70954;49.500;10.416;2024-03-25T02:56:31;6.40;67.40
81524;DHT22;70954;49.500;10.416;2024-03-25T02:58:56;6.40;67.50
81524;DHT22;70954;49.500;10.416;2024-03-25T03:01:21;6.30;67.50
81524;DHT22;70954;49.500;10.416;2024-03-25T03:03:47;6.30;67.50
81524;DHT22;70954;49.500;10.416;2024-03-25T03:06:12;6.30;67.50
81524;DHT22;70954;49.500;10.416;2024-03-25T03:08:38;6.30;67.50
81524;DHT22;70954;49.500;10.416;2024-03-25T03:11:03;6.20;67.60
81524;DHT22;70954;49.500;10.416;2024-03-25T03:13:29;6.20;67.50
81524;DHT22;70954;49.500;10.416;2024-03-25T03:15:54;6.10;67.60
81524;DHT22;70954;49.500;10.416;2024-03-25T03:18:20;6.10;67.50
81524;DHT22;70954;49.500;10.416;2024-03-25T03:20:45;6.10;67.50
81524;DHT22;70954;49.500;10.416;2024-03-25T03:23:11;6.10;67.40
81524;DHT22;70954;49.500;10.416;2024-03-25T03:25:36;6.00;67.40
81524;DHT22;70954;49.500;10.416;2024-03-25T03:28:02;6.00;67.40
81524;DHT22;70954;49.500;10.416;2024-03-25T03:30:27;6.00;67.50
81524;DHT22;70954;49.500;10.416;2024-03-25T03:32:53;6.00;67.50
81524;DHT22;70954;49.500;10.416;2024-03-25T03:35:18;6.00;67.50
81524;DHT22;70954;49.500;10.416;2024-03-25T03:37:44;5.90;67.60
81524;DHT22;70954;49.500;10.416;2024-03-25T03:40:09;5.90;67.60
81524;DHT22;70954;49.500;10.416;2024-03-25T03:42:35;5.90;67.60
81524;DHT22;70954;49.500;10.416;2024-03-25T03:45:00;5.90;67.70
81524;DHT22;70954;49.500;10.416;2024-03-25T03:47:26;5.80;67.70
81524;DHT22;70954;49.500;10.416;2024-03-25T03:49:51;5.90;67.80
81524;DHT22;70954;49.500;10.416;2024-03-25T03:52:17;5.90;67.90
81524;DHT22;70954;49.500;10.416;2024-03-25T03:54:42;5.90;67.90
81524;DHT22;70954;49.500;10.416;2024-03-25T03:57:07;5.80;67.90
81524;DHT22;70954;49.500;10.416;2024-03-25T03:59:33;5.90;68.00
81524;DHT22;70954;49.500;10.416;2024-03-25T04:01:58;5.90;68.00
81524;DHT22;70954;49.500;10.416;2024-03-25T04:04:24;5.90;68.00
81524;DHT22;70954;49.500;10.416;2024-03-25T04:06:50;5.90;68.10
81524;DHT22;70954;49.500;10.416;2024-03-25T04:09:16;5.90;68.00
81524;DHT22;70954;49.500;10.416;2024-03-25T04:11:41;5.90;68.00
81524;DHT22;70954;49.500;10.416;2024-03-25T04:14:07;5.90;68.00
81524;DHT22;70954;49.500;10.416;2024-03-25T04:16:32;6.00;67.90
81524;DHT22;70954;49.500;10.416;2024-03-25T04:18:58;6.00;67.90
81524;DHT22;70954;49.500;10.416;2024-03-25T04:21:23;6.00;67.90
81524;DHT22;70954;49.500;10.416;2024-03-25T04:23:49;6.00;67.80
81524;DHT22;70954;49.500;10.416;2024-03-25T04:26:17;6.00;67.70
81524;DHT22;70954;49.500;10.416;2024-03-25T04:28:43;6.00;67.80
81524;DHT22;70954;49.500;10.416;2024-03-25T04:31:08;6.00;67.80
81524;DHT22;70954;49.500;10.416;2024-03-25T04:33:34;6.00;67.70
81524;DHT22;70954;49.500;10.416;2024-03-25T04:35:59;6.00;67.70
81524;DHT22;70954;49.500;10.416;2024-03-25T04:38:25;5.90;67.70
81524;DHT22;70954;49.500;10.416;2024-03-25T04:40:50;5.90;67.60
81524;DHT22;70954;49.500;10.416;2024-03-25T04:43:16;5.90;67.70
81524;DHT22;70954;49.500;10.416;2024-03-25T04:45:41;5.90;67.60
81524;DHT22;70954;49.500;10.416;2024-03-25T04:48:07;5.90;67.60
81524;DHT22;70954;49.500;10.416;2024-03-25T04:50:32;5.90;67.60
81524;DHT22;70954;49.500;10.416;2024-03-25T04:52:58;5.90;67.60
81524;DHT22;70954;49.500;10.416;2024-03-25T04:55:23;5.90;67.50
81524;DHT22;70954;49.500;10.416;2024-03-25T04:57:49;5.90;67.50
81524;DHT22;70954;49.500;10.416;2024-03-25T05:00:14;5.90;67.40
81524;DHT22;70954;49.500;10.416;2024-03-25T05:02:40;5.80;67.40
81524;DHT22;70954;49.500;10.416;2024-03-25T05:05:06;5.80;67.30
81524;DHT22;70954;49.500;10.416;2024-03-25T05:07:31;5.80;67.20
81524;DHT22;70954;49.500;10.416;2024-03-25T05:09:57;5.80;67.10
81524;DHT22;70954;49.500;10.416;2024-03-25T05:12:22;5.80;67.00
81524;DHT22;70954;49.500;10.416;2024-03-25T05:14:47;5.80;66.90
81524;DHT22;70954;49.500;10.416;2024-03-25T05:17:13;5.70;66.80
81524;DHT22;70954;49.500;10.416;2024-03-25T05:19:38;5.70;66.80
81524;DHT22;70954;49.500;10.416;2024-03-25T05:22:04;5.70;66.80
81524;DHT22;70954;49.500;10.416;2024-03-25T05:24:29;5.70;66.70
81524;DHT22;70954;49.500;10.416;2024-03-25T05:26:55;5.60;66.70
81524;DHT22;70954;49.500;10.416;2024-03-25T05:29:20;5.60;66.70
81524;DHT22;70954;49.500;10.416;2024-03-25T05:31:57;5.50;66.70
81524;DHT22;70954;49.500;10.416;2024-03-25T05:34:23;5.50;66.60
81524;DHT22;70954;49.500;10.416;2024-03-25T05:36:49;5.50;66.60
81524;DHT22;70954;49.500;10.416;2024-03-25T05:39:14;5.40;66.70
81524;DHT22;70954;49.500;10.416;2024-03-25T05:41:40;5.30;66.90
81524;DHT22;70954;49.500;10.416;2024-03-25T05:44:05;5.30;66.90
81524;DHT22;70954;49.500;10.416;2024-03-25T05:46:31;5.30;67.10
81524;DHT22;70954;49.500;10.416;2024-03-25T05:48:56;5.30;67.20
81524;DHT22;70954;49.500;10.416;2024-03-25T05:51:21;5.30;67.20
81524;DHT22;70954;49.500;10.416;2024-03-25T05:53:47;5.30;67.30
81524;DHT22;70954;49.500;10.416;2024-03-25T05:56:12;5.30;67.40
81524;DHT22;70954;49.500;10.416;2024-03-25T05:58:38;5.30;67.50
81524;DHT22;70954;49.500;10.416;2024-03-25T06:01:03;5.30;67.60
81524;DHT22;70954;49.500;10.416;2024-03-25T06:03:29;5.30;67.70
81524;DHT22;70954;49.500;10.416;2024-03-25T06:05:54;5.30;67.80
81524;DHT22;70954;49.500;10.416;2024-03-25T06:08:19;5.30;67.80
81524;DHT22;70954;49.500;10.416;2024-03-25T06:10:45;5.30;67.90
81524;DHT22;70954;49.500;10.416;2024-03-25T06:13:10;5.30;68.00
81524;DHT22;70954;49.500;10.416;2024-03-25T06:15:36;5.30;68.10
81524;DHT22;70954;49.500;10.416;2024-03-25T06:18:01;5.30;67.90
81524;DHT22;70954;49.500;10.416;2024-03-25T06:20:27;5.30;67.90
81524;DHT22;70954;49.500;10.416;2024-03-25T06:22:52;5.30;67.80
81524;DHT22;70954;49.500;10.416;2024-03-25T06:25:18;5.30;67.90
81524;DHT22;70954;49.500;10.416;2024-03-25T06:27:43;5.30;67.80
81524;DHT22;70954;49.500;10.416;2024-03-25T06:30:09;5.30;67.80
81524;DHT22;70954;49.500;10.416;2024-03-25T06:32:35;5.30;67.80
81524;DHT22;70954;49.500;10.416;2024-03-25T06:35:00;5.30;68.00
81524;DHT22;70954;49.500;10.416;2024-03-25T06:37:26;5.30;68.30
81524;DHT22;70954;49.500;10.416;2024-03-25T06:39:51;5.30;68.40
81524;DHT22;70954;49.500;10.416;2024-03-25T06:42:17;5.30;68.60
81524;DHT22;70954;49.500;10.416;2024-03-25T06:44:42;5.30;69.00
81524;DHT22;70954;49.500;10.416;2024-03-25T06:47:08;5.50;69.00
81524;DHT22;70954;49.500;10.416;2024-03-25T06:49:33;5.50;69.00
81524;DHT22;70954;49.500;10.416;2024-03-25T06:51:59;5.50;69.00
81524;DHT22;70954;49.500;10.416;2024-03-25T06:54:24;5.50;69.10
81524;DHT22;70954;49.500;10.416;2024-03-25T06:56:49;5.60;69.20
81524;DHT22;70954;49.500;10.416;2024-03-25T06:59:15;5.70;69.30
81524;DHT22;70954;49.500;10.416;2024-03-25T07:01:40;5.70;69.20
81524;DHT22;70954;49.500;10.416;2024-03-25T07:04:06;5.80;69.20
81524;DHT22;70954;49.500;10.416;2024-03-25T07:06:31;5.90;69.20
81524;DHT22;70954;49.500;10.416;2024-03-25T07:08:57;6.00;69.20
81524;DHT22;70954;49.500;10.416;2024-03-25T07:11:22;6.00;69.30
81524;DHT22;70954;49.500;10.416;2024-03-25T07:13:48;6.10;69.00
81524;DHT22;70954;49.500;10.416;2024-03-25T07:16:13;6.10;68.80
81524;DHT22;70954;49.500;10.416;2024-03-25T07:18:38;6.20;68.70
81524;DHT22;70954;49.500;10.416;2024-03-25T07:21:04;6.30;68.60
81524;DHT22;70954;49.500;10.416;2024-03-25T07:23:29;6.30;68.60
81524;DHT22;70954;49.500;10.416;2024-03-25T07:25:55;6.40;68.60
81524;DHT22;70954;49.500;10.416;2024-03-25T07:28:20;6.50;68.40
81524;DHT22;70954;49.500;10.416;2024-03-25T07:30:46;6.50;68.10
81524;DHT22;70954;49.500;10.416;2024-03-25T07:33:11;6.60;67.80
81524;DHT22;70954;49.500;10.416;2024-03-25T07:35:37;6.60;67.50
81524;DHT22;70954;49.500;10.416;2024-03-25T07:38:02;6.70;67.30
81524;DHT22;70954;49.500;10.416;2024-03-25T07:40:28;6.70;67.20
81524;DHT22;70954;49.500;10.416;2024-03-25T07:42:53;6.70;67.20
81524;DHT22;70954;49.500;10.416;2024-03-25T07:45:18;6.70;67.10
81524;DHT22;70954;49.500;10.416;2024-03-25T07:47:44;6.80;67.10
81524;DHT22;70954;49.500;10.416;2024-03-25T07:50:09;6.80;67.20
81524;DHT22;70954;49.500;10.416;2024-03-25T07:52:35;6.90;67.50
81524;DHT22;70954;49.500;10.416;2024-03-25T07:55:00;6.90;67.50
81524;DHT22;70954;49.500;10.416;2024-03-25T07:57:26;7.00;67.30
81524;DHT22;70954;49.500;10.416;2024-03-25T07:59:51;7.00;67.10
81524;DHT22;70954;49.500;10.416;2024-03-25T08:02:17;7.10;66.90
81524;DHT22;70954;49.500;10.416;2024-03-25T08:04:42;7.20;66.70
81524;DHT22;70954;49.500;10.416;2024-03-25T08:07:08;7.20;66.30
81524;DHT22;70954;49.500;10.416;2024-03-25T08:09:33;7.30;66.40
81524;DHT22;70954;49.500;10.416;2024-03-25T08:11:59;7.40;66.00
81524;DHT22;70954;49.500;10.416;2024-03-25T08:14:24;7.40;65.60
81524;DHT22;70954;49.500;10.416;2024-03-25T08:16:50;7.50;65.50
81524;DHT22;70954;49.500;10.416;2024-03-25T08:19:15;7.50;65.60
81524;DHT22;70954;49.500;10.416;2024-03-25T08:21:41;7.50;65.80
81524;DHT22;70954;49.500;10.416;2024-03-25T08:24:06;7.60;65.80
81524;DHT22;70954;49.500;10.416;2024-03-25T08:26:32;7.70;65.90
81524;DHT22;70954;49.500;10.416;2024-03-25T08:28:58;7.80;65.40
81524;DHT22;70954;49.500;10.416;2024-03-25T08:31:23;7.90;65.90
81524;DHT22;70954;49.500;10.416;2024-03-25T08:33:49;8.00;64.90
81524;DHT22;70954;49.500;10.416;2024-03-25T08:36:14;8.10;64.30
81524;DHT22;70954;49.500;10.416;2024-03-25T08:38:40;8.20;64.70
81524;DHT22;70954;49.500;10.416;2024-03-25T08:41:05;8.30;63.80
81524;DHT22;70954;49.500;10.416;2024-03-25T08:43:31;8.40;64.40
81524;DHT22;70954;49.500;10.416;2024-03-25T08:45:56;8.50;63.90
81524;DHT22;70954;49.500;10.416;2024-03-25T08:48:21;8.60;63.30
81524;DHT22;70954;49.500;10.416;2024-03-25T08:50:47;8.60;61.60
81524;DHT22;70954;49.500;10.416;2024-03-25T08:53:12;8.70;61.80
81524;DHT22;70954;49.500;10.416;2024-03-25T08:55:38;8.80;62.10
81524;DHT22;70954;49.500;10.416;2024-03-25T08:58:03;8.80;62.20
81524;DHT22;70954;49.500;10.416;2024-03-25T09:00:57;8.90;62.10
81524;DHT22;70954;49.500;10.416;2024-03-25T09:03:22;8.90;60.70
81524;DHT22;70954;49.500;10.416;2024-03-25T09:05:48;9.00;62.30
81524;DHT22;70954;49.500;10.416;2024-03-25T09:08:13;9.10;61.90
81524;DHT22;70954;49.500;10.416;2024-03-25T09:10:39;9.20;61.80
81524;DHT22;70954;49.500;10.416;2024-03-25T09:13:04;9.20;60.40
81524;DHT22;70954;49.500;10.416;2024-03-25T09:15:30;9.30;60.30
81524;DHT22;70954;49.500;10.416;2024-03-25T09:17:56;9.40;59.90
81524;DHT22;70954;49.500;10.416;2024-03-25T09:20:21;9.40;60.00
81524;DHT22;70954;49.500;10.416;2024-03-25T09:22:47;9.40;59.50
81524;DHT22;70954;49.500;10.416;2024-03-25T09:25:13;9.40;60.00
81524;DHT22;70954;49.500;10.416;2024-03-25T09:27:38;9.40;60.30
81524;DHT22;70954;49.500;10.416;2024-03-25T09:30:04;9.40;60.30
81524;DHT22;70954;49.500;10.416;2024-03-25T09:32:30;9.50;60.40
81524;DHT22;70954;49.500;10.416;2024-03-25T09:34:55;9.60;60.40
81524;DHT22;70954;49.500;10.416;2024-03-25T09:37:21;9.60;59.70
81524;DHT22;70954;49.500;10.416;2024-03-25T09:39:46;9.70;59.40
81524;DHT22;70954;49.500;10.416;2024-03-25T09:42:14;9.70;58.70
81524;DHT22;70954;49.500;10.416;2024-03-25T09:44:40;9.80;58.60
81524;DHT22;70954;49.500;10.416;2024-03-25T09:47:06;9.80;58.60
81524;DHT22;70954;49.500;10.416;2024-03-25T09:49:32;9.80;59.00
81524;DHT22;70954;49.500;10.416;2024-03-25T09:51:58;9.80;59.00
81524;DHT22;70954;49.500;10.416;2024-03-25T09:54:25;9.80;58.70
81524;DHT22;70954;49.500;10.416;2024-03-25T09:56:50;9.90;58.60
81524;DHT22;70954;49.500;10.416;2024-03-25T09:59:17;9.90;57.80
81524;DHT22;70954;49.500;10.416;2024-03-25T10:01:43;9.90;58.00
81524;DHT22;70954;49.500;10.416;2024-03-25T10:04:08;10.00;56.80
81524;DHT22;70954;49.500;10.416;2024-03-25T10:06:34;9.90;57.20
81524;DHT22;70954;49.500;10.416;2024-03-25T10:08:59;9.90;57.00
81524;DHT22;70954;49.500;10.416;2024-03-25T10:11:25;10.00;57.40
81524;DHT22;70954;49.500;10.416;2024-03-25T10:13:50;10.00;57.80
81524;DHT22;70954;49.500;10.416;2024-03-25T10:16:16;10.10;58.00
81524;DHT22;70954;49.500;10.416;2024-03-25T10:18:42;10.10;57.30
81524;DHT22;70954;49.500;10.416;2024-03-25T10:21:10;10.20;56.40
81524;DHT22;70954;49.500;10.416;2024-03-25T10:23:35;10.30;56.30
81524;DHT22;70954;49.500;10.416;2024-03-25T10:26:01;10.30;55.40
81524;DHT22;70954;49.500;10.416;2024-03-25T10:28:26;10.30;55.30
81524;DHT22;70954;49.500;10.416;2024-03-25T10:30:52;10.40;54.90
81524;DHT22;70954;49.500;10.416;2024-03-25T10:33:17;10.40;55.00
81524;DHT22;70954;49.500;10.416;2024-03-25T10:35:45;10.40;55.20
81524;DHT22;70954;49.500;10.416;2024-03-25T10:38:14;10.50;54.20
81524;DHT22;70954;49.500;10.416;2024-03-25T10:40:42;10.50;55.00
81524;DHT22;70954;49.500;10.416;2024-03-25T10:43:11;10.50;55.30
81524;DHT22;70954;49.500;10.416;2024-03-25T10:45:46;10.60;55.40
81524;DHT22;70954;49.500;10.416;2024-03-25T10:48:17;10.70;55.30
81524;DHT22;70954;49.500;10.416;2024-03-25T10:50:43;10.80;55.00
81524;DHT22;70954;49.500;10.416;2024-03-25T10:53:10;10.90;54.90
81524;DHT22;70954;49.500;10.416;2024-03-25T10:55:37;10.90;54.60
81524;DHT22;70954;49.500;10.416;2024-03-25T10:58:04;11.00;54.50
81524;DHT22;70954;49.500;10.416;2024-03-25T11:00:29;11.10;54.40
81524;DHT22;70954;49.500;10.416;2024-03-25T11:02:55;11.10;54.50
81524;DHT22;70954;49.500;10.416;2024-03-25T11:05:21;11.10;54.20
81524;DHT22;70954;49.500;10.416;2024-03-25T11:07:47;11.30;53.90
81524;DHT22;70954;49.500;10.416;2024-03-25T11:10:12;11.30;53.90
81524;DHT22;70954;49.500;10.416;2024-03-25T11:12:40;11.30;53.90
81524;DHT22;70954;49.500;10.416;2024-03-25T11:15:06;11.40;53.50
81524;DHT22;70954;49.500;10.416;2024-03-25T11:17:32;11.40;53.30
81524;DHT22;70954;49.500;10.416;2024-03-25T11:20:10;11.50;53.40
81524;DHT22;70954;49.500;10.416;2024-03-25T11:22:50;11.50;52.70
81524;DHT22;70954;49.500;10.416;2024-03-25T11:25:16;11.50;52.90
81524;DHT22;70954;49.500;10.416;2024-03-25T11:27:45;11.60;53.40
81524;DHT22;70954;49.500;10.416;2024-03-25T11:30:14;11.70;52.60
81524;DHT22;70954;49.500;10.416;2024-03-25T11:32:49;11.70;52.90
81524;DHT22;70954;49.500;10.416;2024-03-25T11:35:16;11.70;52.70
81524;DHT22;70954;49.500;10.416;2024-03-25T11:37:42;11.70;52.50
81524;DHT22;70954;49.500;10.416;2024-03-25T11:40:09;11.80;52.20
81524;DHT22;70954;49.500;10.416;2024-03-25T11:42:38;11.80;52.10
81524;DHT22;70954;49.500;10.416;2024-03-25T11:45:04;11.90;52.00
81524;DHT22;70954;49.500;10.416;2024-03-25T11:47:30;11.90;51.90
81524;DHT22;70954;49.500;10.416;2024-03-25T11:49:56;11.90;51.00
81524;DHT22;70954;49.500;10.416;2024-03-25T11:52:21;11.90;51.10
81524;DHT22;70954;49.500;10.416;2024-03-25T11:54:56;11.90;50.60
81524;DHT22;70954;49.500;10.416;2024-03-25T11:57:22;11.90;49.40
81524;DHT22;70954;49.500;10.416;2024-03-25T11:59:48;11.90;49.50
81524;DHT22;70954;49.500;10.416;2024-03-25T12:02:16;11.90;49.70
81524;DHT22;70954;49.500;10.416;2024-03-25T12:04:45;11.90;48.70
81524;DHT22;70954;49.500;10.416;2024-03-25T12:07:14;11.90;49.00
81524;DHT22;70954;49.500;10.416;2024-03-25T12:09:40;11.90;48.60
81524;DHT22;70954;49.500;10.416;2024-03-25T12:12:07;11.90;49.40
81524;DHT22;70954;49.500;10.416;2024-03-25T12:14:32;11.90;49.00
81524;DHT22;70954;49.500;10.416;2024-03-25T12:16:58;11.90;49.20
81524;DHT22;70954;49.500;10.416;2024-03-25T12:19:26;11.90;48.90
81524;DHT22;70954;49.500;10.416;2024-03-25T12:22:02;11.90;48.80
81524;DHT22;70954;49.500;10.416;2024-03-25T12:24:27;11.90;48.00
81524;DHT22;70954;49.500;10.416;2024-03-25T12:26:52;11.90;46.00
81524;DHT22;70954;49.500;10.416;2024-03-25T12:29:18;11.90;47.70
81524;DHT22;70954;49.500;10.416;2024-03-25T12:31:53;11.90;47.40
81524;DHT22;70954;49.500;10.416;2024-03-25T12:34:19;11.90;46.60
81524;DHT22;70954;49.500;10.416;2024-03-25T12:36:44;11.90;47.80
81524;DHT22;70954;49.500;10.416;2024-03-25T12:39:16;11.90;46.70
81524;DHT22;70954;49.500;10.416;2024-03-25T12:41:41;12.00;46.60
81524;DHT22;70954;49.500;10.416;2024-03-25T12:44:07;11.90;46.90
81524;DHT22;70954;49.500;10.416;2024-03-25T12:46:32;12.00;46.50
81524;DHT22;70954;49.500;10.416;2024-03-25T12:48:58;11.90;47.10
81524;DHT22;70954;49.500;10.416;2024-03-25T12:51:23;11.90;46.80
81524;DHT22;70954;49.500;10.416;2024-03-25T12:53:49;11.90;47.00
81524;DHT22;70954;49.500;10.416;2024-03-25T12:56:14;11.90;47.20
81524;DHT22;70954;49.500;10.416;2024-03-25T12:58:40;12.00;47.40
81524;DHT22;70954;49.500;10.416;2024-03-25T13:01:05;12.00;47.30
81524;DHT22;70954;49.500;10.416;2024-03-25T13:03:31;12.00;47.00
81524;DHT22;70954;49.500;10.416;2024-03-25T13:05:56;12.00;47.10
81524;DHT22;70954;49.500;10.416;2024-03-25T13:08:22;12.00;47.00
81524;DHT22;70954;49.500;10.416;2024-03-25T13:10:47;12.00;47.00
81524;DHT22;70954;49.500;10.416;2024-03-25T13:13:13;12.10;47.00
81524;DHT22;70954;49.500;10.416;2024-03-25T13:15:38;12.10;46.80
81524;DHT22;70954;49.500;10.416;2024-03-25T13:18:04;12.10;46.10
81524;DHT22;70954;49.500;10.416;2024-03-25T13:20:30;12.20;46.60
81524;DHT22;70954;49.500;10.416;2024-03-25T13:22:55;12.10;46.60
81524;DHT22;70954;49.500;10.416;2024-03-25T13:25:21;12.20;46.70
81524;DHT22;70954;49.500;10.416;2024-03-25T13:27:46;12.20;46.80
81524;DHT22;70954;49.500;10.416;2024-03-25T13:30:12;12.20;46.80
81524;DHT22;70954;49.500;10.416;2024-03-25T13:32:37;12.30;47.00
81524;DHT22;70954;49.500;10.416;2024-03-25T13:35:03;12.30;47.00
81524;DHT22;70954;49.500;10.416;2024-03-25T13:37:28;12.40;47.00
81524;DHT22;70954;49.500;10.416;2024-03-25T13:39:54;12.50;46.90
81524;DHT22;70954;49.500;10.416;2024-03-25T13:42:19;12.50;46.80
81524;DHT22;70954;49.500;10.416;2024-03-25T13:44:44;12.50;46.70
81524;DHT22;70954;49.500;10.416;2024-03-25T13:47:10;12.50;46.50
81524;DHT22;70954;49.500;10.416;2024-03-25T13:49:35;12.50;46.20
81524;DHT22;70954;49.500;10.416;2024-03-25T13:52:02;12.50;46.40
81524;DHT22;70954;49.500;10.416;2024-03-25T13:54:28;12.50;46.40
81524;DHT22;70954;49.500;10.416;2024-03-25T13:56:53;12.50;46.10
81524;DHT22;70954;49.500;10.416;2024-03-25T13:59:19;12.60;46.20
81524;DHT22;70954;49.500;10.416;2024-03-25T14:01:45;12.60;45.60
81524;DHT22;70954;49.500;10.416;2024-03-25T14:04:10;12.60;45.80
81524;DHT22;70954;49.500;10.416;2024-03-25T14:06:36;12.60;45.50
81524;DHT22;70954;49.500;10.416;2024-03-25T14:09:03;12.60;45.50
81524;DHT22;70954;49.500;10.416;2024-03-25T14:11:28;12.60;45.40
81524;DHT22;70954;49.500;10.416;2024-03-25T14:13:54;12.60;45.50
81524;DHT22;70954;49.500;10.416;2024-03-25T14:16:19;12.60;45.80
81524;DHT22;70954;49.500;10.416;2024-03-25T14:18:44;12.70;45.30
81524;DHT22;70954;49.500;10.416;2024-03-25T14:21:10;12.70;45.50
81524;DHT22;70954;49.500;10.416;2024-03-25T14:23:35;12.70;45.70
81524;DHT22;70954;49.500;10.416;2024-03-25T14:26:01;12.70;45.50
81524;DHT22;70954;49.500;10.416;2024-03-25T14:28:26;12.70;45.50
81524;DHT22;70954;49.500;10.416;2024-03-25T14:30:52;12.70;45.30
81524;DHT22;70954;49.500;10.416;2024-03-25T14:33:17;12.70;45.40
81524;DHT22;70954;49.500;10.416;2024-03-25T14:35:42;12.70;45.20
81524;DHT22;70954;49.500;10.416;2024-03-25T14:38:08;12.80;44.70
81524;DHT22;70954;49.500;10.416;2024-03-25T14:40:40;12.70;44.20
81524;DHT22;70954;49.500;10.416;2024-03-25T14:43:06;12.70;44.60
81524;DHT22;70954;49.500;10.416;2024-03-25T14:45:31;12.70;44.60
81524;DHT22;70954;49.500;10.416;2024-03-25T14:47:57;12.70;44.50
81524;DHT22;70954;49.500;10.416;2024-03-25T14:50:22;12.70;44.60
81524;DHT22;70954;49.500;10.416;2024-03-25T14:52:48;12.70;44.70
81524;DHT22;70954;49.500;10.416;2024-03-25T14:55:13;12.70;44.70
81524;DHT22;70954;49.500;10.416;2024-03-25T14:57:39;12.70;44.70
81524;DHT22;70954;49.500;10.416;2024-03-25T15:00:05;12.80;44.70
81524;DHT22;70954;49.500;10.416;2024-03-25T15:02:30;12.80;44.60
81524;DHT22;70954;49.500;10.416;2024-03-25T15:04:56;12.80;43.90
81524;DHT22;70954;49.500;10.416;2024-03-25T15:07:21;12.80;43.90
81524;DHT22;70954;49.500;10.416;2024-03-25T15:09:47;12.80;44.10
81524;DHT22;70954;49.500;10.416;2024-03-25T15:12:12;12.80;44.20
81524;DHT22;70954;49.500;10.416;2024-03-25T15:14:38;12.90;44.30
81524;DHT22;70954;49.500;10.416;2024-03-25T15:17:03;12.90;43.90